sensor_id;sensor_type;location;lat;lon;timestamp;temperature;humidity
3300;DHT22;1662;49.310;8.134;2023-02-15T00:01:30;2.30;99.90
3300;DHT22;1662;49.310;8.134;2023-02-15T00:03:56;2.30;99.90
3300;DHT22;1662;49.310;8.134;2023-02-15T00:06:22;2.40;99.90
3300;DHT22;1662;49.310;8.134;2023-02-15T00:08:50;2.40;99.90
3300;DHT22;1662;49.310;8.134;2023-02-15T00:11:17;2.30;99.90
3300;DHT22;1662;49.310;8.134;2023-02-15T00:16:33;2.30;99.90
3300;DHT22;1662;49.310;8.134;2023-02-15T00:18:58;2.30;99.90
3300;DHT22;1662;49.310;8.134;2023-02-15T00:21:31;2.40;99.90
3300;DHT22;1662;49.310;8.134;2023-02-15T00:23:58;2.50;99.90
3300;DHT22;1662;49.310;8.134;2023-02-15T00:26:25;2.50;99.90
3300;DHT22;1662;49.310;8.134;2023-02-15T00:28:51;2.50;99.90
3300;DHT22;1662;49.310;8.134;2023-02-15T00:31:16;2.50;99.90
3300;DHT22;1662;49.310;8.134;2023-02-15T00:33:42;2.40;99.90
3300;DHT22;1662;49.310;8.134;2023-02-15T00:36:10;2.50;99.90
3300;DHT22;1662;49.310;8.134;2023-02-15T00:38:36;2.50;99.90
3300;DHT22;1662;49.310;8.134;2023-02-15T00:41:04;2.50;99.90
3300;DHT22;1662;49.310;8.134;2023-02-15T00:43:31;2.50;99.90
3300;DHT22;1662;49.310;8.134;2023-02-15T00:45:57;2.50;99.90
3300;DHT22;1662;49.310;8.134;2023-02-15T00:48:23;2.50;99.90
3300;DHT22;1662;49.310;8.134;2023-02-15T00:50:51;2.50;99.90
3300;DHT22;1662;49.310;8.134;2023-02-15T00:53:17;2.40;99.90
3300;DHT22;1662;49.310;8.134;2023-02-15T00:55:43;2.40;99.90
3300;DHT22;1662;49.310;8.134;2023-02-15T00:58:09;2.40;99.90
3300;DHT22;1662;49.310;8.134;2023-02-15T01:00:36;2.50;99.90
3300;DHT22;1662;49.310;8.134;2023-02-15T01:03:02;2.50;99.90
3300;DHT22;1662;49.310;8.134;2023-02-15T01:05:27;2.50;99.90
3300;DHT22;1662;49.310;8.134;2023-02-15T01:07:55;2.50;99.90
3300;DHT22;1662;49.310;8.134;2023-02-15T01:10:21;2.50;99.90
3300;DHT22;1662;49.310;8.134;2023-02-15T01:12:47;2.50;99.90
3300;DHT22;1662;49.310;8.134;2023-02-15T01:15:12;2.40;99.90
3300;DHT22;1662;49.310;8.134;2023-02-15T01:17:38;2.30;99.90
3300;DHT22;1662;49.310;8.134;2023-02-15T01:20:04;2.30;99.90
3300;DHT22;1662;49.310;8.134;2023-02-15T01:22:32;2.40;99.90
3300;DHT22;1662;49.310;8.134;2023-02-15T01:24:57;2.40;99.90
3300;DHT22;1662;49.310;8.134;2023-02-15T01:27:23;2.50;99.90
3300;DHT22;1662;49.310;8.134;2023-02-15T01:29:48;2.50;99.90
3300;DHT22;1662;49.310;8.134;2023-02-15T01:32:14;2.40;99.90
3300;DHT22;1662;49.310;8.134;2023-02-15T01:34:42;2.40;99.90
3300;DHT22;1662;49.310;8.134;2023-02-15T01:37:07;2.40;99.90
3300;DHT22;1662;49.310;8.134;2023-02-15T01:39:33;2.30;99.90
3300;DHT22;1662;49.310;8.134;2023-02-15T01:41:58;2.30;99.90
3300;DHT22;1662;49.310;8.134;2023-02-15T01:44:50;2.30;99.90
3300;DHT22;1662;49.310;8.134;2023-02-15T01:47:22;2.30;99.90
3300;DHT22;1662;49.310;8.134;2023-02-15T01:49:52;2.40;99.90
3300;DHT22;1662;49.310;8.134;2023-02-15T01:52:20;2.40;99.90
3300;DHT22;1662;49.310;8.134;2023-02-15T01:54:46;2.40;99.90
3300;DHT22;1662;49.310;8.134;2023-02-15T01:57:19;2.40;99.90
3300;DHT22;1662;49.310;8.134;2023-02-15T01:59:53;2.40;99.90
3300;DHT22;1662;49.310;8.134;2023-02-15T02:02:20;2.50;99.90
3300;DHT22;1662;49.310;8.134;2023-02-15T02:04:51;2.50;99.90
3300;DHT22;1662;49.310;8.134;2023-02-15T02:07:21;2.40;99.90
3300;DHT22;1662;49.310;8.134;2023-02-15T02:09:48;2.40;99.90
3300;DHT22;1662;49.310;8.134;2023-02-15T02:12:16;2.40;99.90
3300;DHT22;1662;49.310;8.134;2023-02-15T02:14:42;2.40;99.90
3300;DHT22;1662;49.310;8.134;2023-02-15T02:17:24;2.30;99.90
3300;DHT22;1662;49.310;8.134;2023-02-15T02:21:11;2.40;99.90
3300;DHT22;1662;49.310;8.134;2023-02-15T02:34:35;2.20;99.90
3300;DHT22;1662;49.310;8.134;2023-02-15T02:43:10;2.10;99.90
3300;DHT22;1662;49.310;8.134;2023-02-15T02:45:46;2.10;99.90
3300;DHT22;1662;49.310;8.134;2023-02-15T02:48:21;2.10;99.90
3300;DHT22;1662;49.310;8.134;2023-02-15T02:50:48;2.10;99.90
3300;DHT22;1662;49.310;8.134;2023-02-15T02:53:14;2.20;99.90
3300;DHT22;1662;49.310;8.134;2023-02-15T02:55:46;2.30;99.90
3300;DHT22;1662;49.310;8.134;2023-02-15T03:00:54;2.30;99.90
3300;DHT22;1662;49.310;8.134;2023-02-15T03:03:34;2.20;99.90
3300;DHT22;1662;49.310;8.134;2023-02-15T03:06:06;2.20;99.90
3300;DHT22;1662;49.310;8.134;2023-02-15T03:08:42;2.20;99.90
3300;DHT22;1662;49.310;8.134;2023-02-15T03:11:09;2.20;99.90
3300;DHT22;1662;49.310;8.134;2023-02-15T03:13:36;2.30;99.90
3300;DHT22;1662;49.310;8.134;2023-02-15T03:16:03;2.30;99.90
3300;DHT22;1662;49.310;8.134;2023-02-15T03:18:51;2.40;99.90
3300;DHT22;1662;49.310;8.134;2023-02-15T03:21:34;2.30;99.90
3300;DHT22;1662;49.310;8.134;2023-02-15T03:24:16;2.40;99.90
3300;DHT22;1662;49.310;8.134;2023-02-15T03:26:47;2.40;99.90
3300;DHT22;1662;49.310;8.134;2023-02-15T03:29:15;2.40;99.90
3300;DHT22;1662;49.310;8.134;2023-02-15T03:31:44;2.40;99.90
3300;DHT22;1662;49.310;8.134;2023-02-15T03:34:12;2.30;99.90
3300;DHT22;1662;49.310;8.134;2023-02-15T03:36:45;2.30;99.90
3300;DHT22;1662;49.310;8.134;2023-02-15T03:45:02;2.20;99.90
3300;DHT22;1662;49.310;8.134;2023-02-15T03:47:32;2.20;99.90
3300;DHT22;1662;49.310;8.134;2023-02-15T03:50:03;2.30;99.90
3300;DHT22;1662;49.310;8.134;2023-02-15T03:52:51;2.20;99.90
3300;DHT22;1662;49.310;8.134;2023-02-15T03:55:18;2.20;99.90
3300;DHT22;1662;49.310;8.134;2023-02-15T03:57:44;2.20;99.90
3300;DHT22;1662;49.310;8.134;2023-02-15T04:00:30;2.20;99.90
3300;DHT22;1662;49.310;8.134;2023-02-15T04:03:41;2.20;99.90
3300;DHT22;1662;49.310;8.134;2023-02-15T04:06:07;2.20;99.90
3300;DHT22;1662;49.310;8.134;2023-02-15T04:08:33;2.20;99.90
3300;DHT22;1662;49.310;8.134;2023-02-15T04:11:17;2.20;99.90
3300;DHT22;1662;49.310;8.134;2023-02-15T04:13:43;2.20;99.90
3300;DHT22;1662;49.310;8.134;2023-02-15T04:16:08;2.20;99.90
3300;DHT22;1662;49.310;8.134;2023-02-15T04:18:36;2.20;99.90
3300;DHT22;1662;49.310;8.134;2023-02-15T04:21:22;2.20;99.90
3300;DHT22;1662;49.310;8.134;2023-02-15T04:24:06;2.20;99.90
3300;DHT22;1662;49.310;8.134;2023-02-15T04:26:51;2.20;99.90
3300;DHT22;1662;49.310;8.134;2023-02-15T04:29:20;2.20;99.90
3300;DHT22;1662;49.310;8.134;2023-02-15T04:31:46;2.20;99.90
3300;DHT22;1662;49.310;8.134;2023-02-15T04:34:13;2.20;99.90
3300;DHT22;1662;49.310;8.134;2023-02-15T04:36:39;2.10;99.90
3300;DHT22;1662;49.310;8.134;2023-02-15T04:39:05;2.10;99.90
3300;DHT22;1662;49.310;8.134;2023-02-15T04:41:32;2.10;99.90
3300;DHT22;1662;49.310;8.134;2023-02-15T04:43:57;2.00;99.90
3300;DHT22;1662;49.310;8.134;2023-02-15T04:46:24;2.00;99.90
3300;DHT22;1662;49.310;8.134;2023-02-15T04:48:50;2.00;99.90
3300;DHT22;1662;49.310;8.134;2023-02-15T04:51:16;2.00;99.90
3300;DHT22;1662;49.310;8.134;2023-02-15T04:53:41;2.00;99.90
3300;DHT22;1662;49.310;8.134;2023-02-15T04:56:07;2.00;99.90
3300;DHT22;1662;49.310;8.134;2023-02-15T04:58:33;2.00;99.90
3300;DHT22;1662;49.310;8.134;2023-02-15T05:00:58;2.00;99.90
3300;DHT22;1662;49.310;8.134;2023-02-15T05:03:24;2.00;99.90
3300;DHT22;1662;49.310;8.134;2023-02-15T05:05:50;1.90;99.90
3300;DHT22;1662;49.310;8.134;2023-02-15T05:08:17;1.90;99.90
3300;DHT22;1662;49.310;8.134;2023-02-15T05:10:42;1.90;99.90
3300;DHT22;1662;49.310;8.134;2023-02-15T05:13:10;2.00;99.90
3300;DHT22;1662;49.310;8.134;2023-02-15T05:15:36;2.00;99.90
3300;DHT22;1662;49.310;8.134;2023-02-15T05:18:04;1.90;99.90
3300;DHT22;1662;49.310;8.134;2023-02-15T05:20:31;1.90;99.90
3300;DHT22;1662;49.310;8.134;2023-02-15T05:22:56;1.90;99.90
3300;DHT22;1662;49.310;8.134;2023-02-15T05:25:22;1.90;99.90
3300;DHT22;1662;49.310;8.134;2023-02-15T05:28:10;1.90;99.90
3300;DHT22;1662;49.310;8.134;2023-02-15T05:30:45;1.90;99.90
3300;DHT22;1662;49.310;8.134;2023-02-15T05:33:10;1.90;99.90
3300;DHT22;1662;49.310;8.134;2023-02-15T05:35:36;1.80;99.90
3300;DHT22;1662;49.310;8.134;2023-02-15T05:38:02;1.80;99.90
3300;DHT22;1662;49.310;8.134;2023-02-15T05:40:27;1.80;99.90
3300;DHT22;1662;49.310;8.134;2023-02-15T05:42:53;1.80;99.90
3300;DHT22;1662;49.310;8.134;2023-02-15T05:45:18;1.80;99.90
3300;DHT22;1662;49.310;8.134;2023-02-15T05:47:44;1.80;99.90
3300;DHT22;1662;49.310;8.134;2023-02-15T05:50:10;1.80;99.90
3300;DHT22;1662;49.310;8.134;2023-02-15T05:52:36;1.70;99.90
3300;DHT22;1662;49.310;8.134;2023-02-15T05:55:03;1.70;99.90
3300;DHT22;1662;49.310;8.134;2023-02-15T05:57:29;1.60;99.90
3300;DHT22;1662;49.310;8.134;2023-02-15T05:59:55;1.70;99.90
3300;DHT22;1662;49.310;8.134;2023-02-15T06:02:21;1.70;99.90
3300;DHT22;1662;49.310;8.134;2023-02-15T06:04:47;1.60;99.90
3300;DHT22;1662;49.310;8.134;2023-02-15T06:07:12;1.60;99.90
3300;DHT22;1662;49.310;8.134;2023-02-15T06:09:38;1.70;99.90
3300;DHT22;1662;49.310;8.134;2023-02-15T06:12:03;1.70;99.90
3300;DHT22;1662;49.310;8.134;2023-02-15T06:14:29;1.80;99.90
3300;DHT22;1662;49.310;8.134;2023-02-15T06:16:55;1.70;99.90
3300;DHT22;1662;49.310;8.134;2023-02-15T06:19:20;1.70;99.90
3300;DHT22;1662;49.310;8.134;2023-02-15T06:21:48;1.70;99.90
3300;DHT22;1662;49.310;8.134;2023-02-15T06:24:13;1.70;99.90
3300;DHT22;1662;49.310;8.134;2023-02-15T06:26:39;1.70;99.90
3300;DHT22;1662;49.310;8.134;2023-02-15T06:29:05;1.70;99.90
3300;DHT22;1662;49.310;8.134;2023-02-15T06:31:30;1.70;99.90
3300;DHT22;1662;49.310;8.134;2023-02-15T06:33:56;1.70;99.90
3300;DHT22;1662;49.310;8.134;2023-02-15T06:36:30;1.70;99.90
3300;DHT22;1662;49.310;8.134;2023-02-15T06:38:56;1.70;99.90
3300;DHT22;1662;49.310;8.134;2023-02-15T06:41:23;1.50;99.90
3300;DHT22;1662;49.310;8.134;2023-02-15T06:43:49;1.40;99.90
3300;DHT22;1662;49.310;8.134;2023-02-15T06:46:15;1.40;99.90
3300;DHT22;1662;49.310;8.134;2023-02-15T06:48:40;1.60;99.90
3300;DHT22;1662;49.310;8.134;2023-02-15T06:51:06;1.60;99.90
3300;DHT22;1662;49.310;8.134;2023-02-15T06:53:32;1.50;99.90
3300;DHT22;1662;49.310;8.134;2023-02-15T06:56:02;1.50;99.90
3300;DHT22;1662;49.310;8.134;2023-02-15T06:58:28;1.50;99.90
3300;DHT22;1662;49.310;8.134;2023-02-15T07:00:54;1.50;99.90
3300;DHT22;1662;49.310;8.134;2023-02-15T07:03:19;1.40;99.90
3300;DHT22;1662;49.310;8.134;2023-02-15T07:05:45;1.40;99.90
3300;DHT22;1662;49.310;8.134;2023-02-15T07:08:15;1.40;99.90
3300;DHT22;1662;49.310;8.134;2023-02-15T07:10:43;1.40;99.90
3300;DHT22;1662;49.310;8.134;2023-02-15T07:13:09;1.50;99.90
3300;DHT22;1662;49.310;8.134;2023-02-15T07:15:34;1.50;99.90
3300;DHT22;1662;49.310;8.134;2023-02-15T07:18:00;1.50;99.90
3300;DHT22;1662;49.310;8.134;2023-02-15T07:20:26;1.50;99.90
3300;DHT22;1662;49.310;8.134;2023-02-15T07:22:52;1.50;99.90
3300;DHT22;1662;49.310;8.134;2023-02-15T07:25:17;1.50;99.90
3300;DHT22;1662;49.310;8.134;2023-02-15T07:27:43;1.50;99.90
3300;DHT22;1662;49.310;8.134;2023-02-15T07:30:12;1.50;99.90
3300;DHT22;1662;49.310;8.134;2023-02-15T07:32:39;1.50;99.90
3300;DHT22;1662;49.310;8.134;2023-02-15T07:35:23;1.60;99.90
3300;DHT22;1662;49.310;8.134;2023-02-15T07:37:48;1.60;99.90
3300;DHT22;1662;49.310;8.134;2023-02-15T07:40:17;1.60;99.90
3300;DHT22;1662;49.310;8.134;2023-02-15T07:42:42;1.50;99.90
3300;DHT22;1662;49.310;8.134;2023-02-15T07:45:08;1.50;99.90
3300;DHT22;1662;49.310;8.134;2023-02-15T07:47:34;1.50;99.90
3300;DHT22;1662;49.310;8.134;2023-02-15T07:49:59;1.50;99.90
3300;DHT22;1662;49.310;8.134;2023-02-15T07:52:25;1.50;99.90
3300;DHT22;1662;49.310;8.134;2023-02-15T07:54:51;1.50;99.90
3300;DHT22;1662;49.310;8.134;2023-02-15T07:57:16;1.60;99.90
3300;DHT22;1662;49.310;8.134;2023-02-15T07:59:42;1.60;99.90
3300;DHT22;1662;49.310;8.134;2023-02-15T08:02:11;1.70;99.90
3300;DHT22;1662;49.310;8.134;2023-02-15T08:04:36;1.60;99.90
3300;DHT22;1662;49.310;8.134;2023-02-15T08:07:02;1.60;99.90
3300;DHT22;1662;49.310;8.134;2023-02-15T08:09:28;1.60;99.90
3300;DHT22;1662;49.310;8.134;2023-02-15T08:11:53;1.60;99.90
3300;DHT22;1662;49.310;8.134;2023-02-15T08:14:20;1.70;99.90
3300;DHT22;1662;49.310;8.134;2023-02-15T08:16:52;1.70;99.90
3300;DHT22;1662;49.310;8.134;2023-02-15T08:19:20;1.70;99.90
3300;DHT22;1662;49.310;8.134;2023-02-15T08:21:52;1.70;99.90
3300;DHT22;1662;49.310;8.134;2023-02-15T08:24:20;1.60;99.90
3300;DHT22;1662;49.310;8.134;2023-02-15T08:26:47;1.50;99.90
3300;DHT22;1662;49.310;8.134;2023-02-15T08:29:14;1.40;99.90
3300;DHT22;1662;49.310;8.134;2023-02-15T08:31:41;1.40;99.90
3300;DHT22;1662;49.310;8.134;2023-02-15T08:34:08;1.40;99.90
3300;DHT22;1662;49.310;8.134;2023-02-15T08:36:33;1.40;99.90
3300;DHT22;1662;49.310;8.134;2023-02-15T08:39:01;1.40;99.90
3300;DHT22;1662;49.310;8.134;2023-02-15T08:41:29;1.30;99.90
3300;DHT22;1662;49.310;8.134;2023-02-15T08:43:57;1.30;99.90
3300;DHT22;1662;49.310;8.134;2023-02-15T08:46:25;1.50;99.90
3300;DHT22;1662;49.310;8.134;2023-02-15T08:48:54;1.50;99.90
3300;DHT22;1662;49.310;8.134;2023-02-15T08:51:22;1.50;99.90
3300;DHT22;1662;49.310;8.134;2023-02-15T08:53:51;1.50;99.90
3300;DHT22;1662;49.310;8.134;2023-02-15T08:56:19;1.50;99.90
3300;DHT22;1662;49.310;8.134;2023-02-15T08:58:48;1.70;99.90
3300;DHT22;1662;49.310;8.134;2023-02-15T09:01:16;1.70;99.90
3300;DHT22;1662;49.310;8.134;2023-02-15T09:03:47;1.60;99.90
3300;DHT22;1662;49.310;8.134;2023-02-15T09:06:14;1.50;99.90
3300;DHT22;1662;49.310;8.134;2023-02-15T09:08:39;1.50;99.90
3300;DHT22;1662;49.310;8.134;2023-02-15T09:11:16;1.50;99.90
3300;DHT22;1662;49.310;8.134;2023-02-15T09:13:48;1.40;99.90
3300;DHT22;1662;49.310;8.134;2023-02-15T09:16:14;1.40;99.90
3300;DHT22;1662;49.310;8.134;2023-02-15T09:18:42;1.40;99.90
3300;DHT22;1662;49.310;8.134;2023-02-15T09:21:16;1.60;99.90
3300;DHT22;1662;49.310;8.134;2023-02-15T09:23:47;1.60;99.90
3300;DHT22;1662;49.310;8.134;2023-02-15T09:26:15;1.70;99.90
3300;DHT22;1662;49.310;8.134;2023-02-15T09:28:41;1.70;99.90
3300;DHT22;1662;49.310;8.134;2023-02-15T09:31:12;1.70;99.90
3300;DHT22;1662;49.310;8.134;2023-02-15T09:33:38;1.70;99.90
3300;DHT22;1662;49.310;8.134;2023-02-15T09:36:05;1.80;99.90
3300;DHT22;1662;49.310;8.134;2023-02-15T09:38:31;1.80;99.90
3300;DHT22;1662;49.310;8.134;2023-02-15T10:28:19;2.00;99.90
3300;DHT22;1662;49.310;8.134;2023-02-15T10:30:50;2.00;99.90
3300;DHT22;1662;49.310;8.134;2023-02-15T10:34:03;2.00;99.90
3300;DHT22;1662;49.310;8.134;2023-02-15T10:47:08;2.30;99.90
3300;DHT22;1662;49.310;8.134;2023-02-15T10:52:25;2.30;99.90
3300;DHT22;1662;49.310;8.134;2023-02-15T10:54:59;2.20;99.90
3300;DHT22;1662;49.310;8.134;2023-02-15T10:57:38;2.10;99.90
3300;DHT22;1662;49.310;8.134;2023-02-15T11:00:13;2.10;99.90
3300;DHT22;1662;49.310;8.134;2023-02-15T11:07:58;2.40;99.90
3300;DHT22;1662;49.310;8.134;2023-02-15T11:10:54;2.40;99.90
3300;DHT22;1662;49.310;8.134;2023-02-15T11:13:27;2.40;99.90
3300;DHT22;1662;49.310;8.134;2023-02-15T11:16:08;2.40;99.90
3300;DHT22;1662;49.310;8.134;2023-02-15T11:18:52;2.40;99.90
3300;DHT22;1662;49.310;8.134;2023-02-15T11:21:55;2.50;99.90
3300;DHT22;1662;49.310;8.134;2023-02-15T11:24:18;2.50;99.90
3300;DHT22;1662;49.310;8.134;2023-02-15T11:29:26;2.50;99.90
3300;DHT22;1662;49.310;8.134;2023-02-15T11:31:57;2.50;99.90
3300;DHT22;1662;49.310;8.134;2023-02-15T11:34:53;2.50;99.90
3300;DHT22;1662;49.310;8.134;2023-02-15T11:37:24;2.50;99.90
3300;DHT22;1662;49.310;8.134;2023-02-15T11:39:52;2.50;99.90
3300;DHT22;1662;49.310;8.134;2023-02-15T11:42:21;2.60;99.90
3300;DHT22;1662;49.310;8.134;2023-02-15T11:47:17;2.60;99.90
3300;DHT22;1662;49.310;8.134;2023-02-15T11:49:44;2.70;99.90
3300;DHT22;1662;49.310;8.134;2023-02-15T11:52:15;2.70;99.90
3300;DHT22;1662;49.310;8.134;2023-02-15T11:54:44;2.80;99.90
3300;DHT22;1662;49.310;8.134;2023-02-15T11:57:36;2.80;99.90
3300;DHT22;1662;49.310;8.134;2023-02-15T12:00:06;2.80;99.90
3300;DHT22;1662;49.310;8.134;2023-02-15T12:02:37;2.80;99.90
3300;DHT22;1662;49.310;8.134;2023-02-15T12:05:11;2.90;99.90
3300;DHT22;1662;49.310;8.134;2023-02-15T12:07:40;2.90;99.90
3300;DHT22;1662;49.310;8.134;2023-02-15T12:10:25;2.90;99.90
3300;DHT22;1662;49.310;8.134;2023-02-15T12:15:35;3.00;99.90
3300;DHT22;1662;49.310;8.134;2023-02-15T12:18:01;3.20;99.90
3300;DHT22;1662;49.310;8.134;2023-02-15T12:20:36;3.40;99.90
3300;DHT22;1662;49.310;8.134;2023-02-15T12:23:22;3.30;99.90
3300;DHT22;1662;49.310;8.134;2023-02-15T12:25:56;3.40;99.90
3300;DHT22;1662;49.310;8.134;2023-02-15T12:28:35;3.40;99.90
3300;DHT22;1662;49.310;8.134;2023-02-15T12:31:07;3.40;99.90
3300;DHT22;1662;49.310;8.134;2023-02-15T12:33:41;3.30;99.90
3300;DHT22;1662;49.310;8.134;2023-02-15T12:36:22;3.30;99.90
3300;DHT22;1662;49.310;8.134;2023-02-15T12:41:38;3.30;99.90
3300;DHT22;1662;49.310;8.134;2023-02-15T12:44:19;3.40;99.90
3300;DHT22;1662;49.310;8.134;2023-02-15T12:49:36;3.30;99.90
3300;DHT22;1662;49.310;8.134;2023-02-15T12:54:46;3.40;99.90
3300;DHT22;1662;49.310;8.134;2023-02-15T12:57:31;3.50;99.90
3300;DHT22;1662;49.310;8.134;2023-02-15T13:02:30;3.40;99.90
3300;DHT22;1662;49.310;8.134;2023-02-15T13:04:57;3.50;99.90
3300;DHT22;1662;49.310;8.134;2023-02-15T13:07:30;3.50;99.90
3300;DHT22;1662;49.310;8.134;2023-02-15T13:09:57;3.50;99.90
3300;DHT22;1662;49.310;8.134;2023-02-15T13:12:25;3.60;99.90
3300;DHT22;1662;49.310;8.134;2023-02-15T13:14:57;3.60;99.90
3300;DHT22;1662;49.310;8.134;2023-02-15T13:17:30;3.60;99.90
3300;DHT22;1662;49.310;8.134;2023-02-15T13:20:02;4.70;99.90
3300;DHT22;1662;49.310;8.134;2023-02-15T13:22:40;6.60;99.90
3300;DHT22;1662;49.310;8.134;2023-02-15T13:25:25;6.20;99.90
3300;DHT22;1662;49.310;8.134;2023-02-15T13:27:56;5.60;99.90
3300;DHT22;1662;49.310;8.134;2023-02-15T13:30:35;5.20;99.90
3300;DHT22;1662;49.310;8.134;2023-02-15T13:33:06;4.70;99.90
3300;DHT22;1662;49.310;8.134;2023-02-15T13:35:45;4.50;99.90
3300;DHT22;1662;49.310;8.134;2023-02-15T13:42:19;4.20;99.90
3300;DHT22;1662;49.310;8.134;2023-02-15T13:44:42;4.00;99.90
3300;DHT22;1662;49.310;8.134;2023-02-15T13:50:20;4.10;99.90
3300;DHT22;1662;49.310;8.134;2023-02-15T14:01:09;4.20;99.90
3300;DHT22;1662;49.310;8.134;2023-02-15T14:09:30;4.10;99.90
3300;DHT22;1662;49.310;8.134;2023-02-15T14:17:35;4.10;99.90
3300;DHT22;1662;49.310;8.134;2023-02-15T14:22:57;4.20;99.90
3300;DHT22;1662;49.310;8.134;2023-02-15T14:28:11;4.10;99.90
3300;DHT22;1662;49.310;8.134;2023-02-15T14:30:40;4.10;99.90
3300;DHT22;1662;49.310;8.134;2023-02-15T14:33:29;4.10;99.90
3300;DHT22;1662;49.310;8.134;2023-02-15T14:35:56;4.20;99.90
3300;DHT22;1662;49.310;8.134;2023-02-15T14:46:50;4.50;99.90
3300;DHT22;1662;49.310;8.134;2023-02-15T14:49:41;4.50;99.90
3300;DHT22;1662;49.310;8.134;2023-02-15T14:52:08;4.60;99.90
3300;DHT22;1662;49.310;8.134;2023-02-15T15:05:35;4.40;99.90
3300;DHT22;1662;49.310;8.134;2023-02-15T15:08:26;4.30;99.90
3300;DHT22;1662;49.310;8.134;2023-02-15T15:10:53;4.30;99.90
3300;DHT22;1662;49.310;8.134;2023-02-15T15:18:55;4.30;99.90
3300;DHT22;1662;49.310;8.134;2023-02-15T15:38:28;4.40;99.90
3300;DHT22;1662;49.310;8.134;2023-02-15T15:49:58;5.90;99.90
3300;DHT22;1662;49.310;8.134;2023-02-15T15:52:24;5.60;99.90
3300;DHT22;1662;49.310;8.134;2023-02-15T15:55:03;5.30;99.90
3300;DHT22;1662;49.310;8.134;2023-02-15T15:57:41;5.10;99.90
3300;DHT22;1662;49.310;8.134;2023-02-15T16:00:47;4.90;99.90
3300;DHT22;1662;49.310;8.134;2023-02-15T16:05:46;4.60;99.90
3300;DHT22;1662;49.310;8.134;2023-02-15T16:08:11;4.60;99.90
3300;DHT22;1662;49.310;8.134;2023-02-15T16:10:41;4.50;99.90
3300;DHT22;1662;49.310;8.134;2023-02-15T16:13:11;4.50;99.90
3300;DHT22;1662;49.310;8.134;2023-02-15T16:15:45;4.40;99.90
3300;DHT22;1662;49.310;8.134;2023-02-15T16:18:16;4.70;99.90
3300;DHT22;1662;49.310;8.134;2023-02-15T16:28:50;4.40;99.90
3300;DHT22;1662;49.310;8.134;2023-02-15T16:31:22;4.40;99.90
3300;DHT22;1662;49.310;8.134;2023-02-15T16:33:51;4.30;99.90
3300;DHT22;1662;49.310;8.134;2023-02-15T16:36:28;4.30;99.90
3300;DHT22;1662;49.310;8.134;2023-02-15T16:41:27;4.30;99.90
3300;DHT22;1662;49.310;8.134;2023-02-15T16:43:55;4.30;99.90
3300;DHT22;1662;49.310;8.134;2023-02-15T16:46:26;4.20;99.90
3300;DHT22;1662;49.310;8.134;2023-02-15T16:48:54;4.10;99.90
3300;DHT22;1662;49.310;8.134;2023-02-15T16:51:24;4.10;99.90
3300;DHT22;1662;49.310;8.134;2023-02-15T16:53:52;4.10;99.90
3300;DHT22;1662;49.310;8.134;2023-02-15T16:56:27;4.00;99.90
3300;DHT22;1662;49.310;8.134;2023-02-15T16:58:56;3.90;99.90
3300;DHT22;1662;49.310;8.134;2023-02-15T17:01:26;3.90;99.90
3300;DHT22;1662;49.310;8.134;2023-02-15T17:04:32;3.80;99.90
3300;DHT22;1662;49.310;8.134;2023-02-15T17:07:12;3.80;99.90
3300;DHT22;1662;49.310;8.134;2023-02-15T17:09:57;3.80;99.90
3300;DHT22;1662;49.310;8.134;2023-02-15T17:17:58;3.50;99.90
3300;DHT22;1662;49.310;8.134;2023-02-15T17:20:25;3.50;99.90
3300;DHT22;1662;49.310;8.134;2023-02-15T17:22:52;3.60;99.90
3300;DHT22;1662;49.310;8.134;2023-02-15T17:25:26;3.60;99.90
3300;DHT22;1662;49.310;8.134;2023-02-15T17:27:55;3.60;99.90
3300;DHT22;1662;49.310;8.134;2023-02-15T17:30:31;3.60;99.90
3300;DHT22;1662;49.310;8.134;2023-02-15T17:33:02;3.60;99.90
3300;DHT22;1662;49.310;8.134;2023-02-15T17:35:32;3.60;99.90
3300;DHT22;1662;49.310;8.134;2023-02-15T17:38:04;3.40;99.90
3300;DHT22;1662;49.310;8.134;2023-02-15T17:40:33;3.50;99.90
3300;DHT22;1662;49.310;8.134;2023-02-15T17:42:59;3.40;99.90
3300;DHT22;1662;49.310;8.134;2023-02-15T17:45:34;3.40;99.90
3300;DHT22;1662;49.310;8.134;2023-02-15T17:48:05;3.40;99.90
3300;DHT22;1662;49.310;8.134;2023-02-15T17:50:32;3.40;99.90
3300;DHT22;1662;49.310;8.134;2023-02-15T17:52:58;3.50;99.90
3300;DHT22;1662;49.310;8.134;2023-02-15T17:55:27;3.50;99.90
3300;DHT22;1662;49.310;8.134;2023-02-15T17:58:14;3.50;99.90
3300;DHT22;1662;49.310;8.134;2023-02-15T18:00:49;3.50;99.90
3300;DHT22;1662;49.310;8.134;2023-02-15T18:03:47;3.50;99.90
3300;DHT22;1662;49.310;8.134;2023-02-15T18:06:33;3.40;99.90
3300;DHT22;1662;49.310;8.134;2023-02-15T18:09:20;3.40;99.90
3300;DHT22;1662;49.310;8.134;2023-02-15T18:12:24;3.40;99.90
3300;DHT22;1662;49.310;8.134;2023-02-15T18:14:51;3.40;99.90
3300;DHT22;1662;49.310;8.134;2023-02-15T18:17:18;3.40;99.90
3300;DHT22;1662;49.310;8.134;2023-02-15T18:19:46;3.40;99.90
3300;DHT22;1662;49.310;8.134;2023-02-15T18:22:15;3.40;99.90
3300;DHT22;1662;49.310;8.134;2023-02-15T18:24:42;3.30;99.90
3300;DHT22;1662;49.310;8.134;2023-02-15T18:27:10;3.30;99.90
3300;DHT22;1662;49.310;8.134;2023-02-15T18:29:36;3.30;99.90
3300;DHT22;1662;49.310;8.134;2023-02-15T18:32:03;3.30;99.90
3300;DHT22;1662;49.310;8.134;2023-02-15T18:34:35;3.30;99.90
3300;DHT22;1662;49.310;8.134;2023-02-15T18:37:04;3.30;99.90
3300;DHT22;1662;49.310;8.134;2023-02-15T18:39:50;3.30;99.90
3300;DHT22;1662;49.310;8.134;2023-02-15T18:42:23;3.30;99.90
3300;DHT22;1662;49.310;8.134;2023-02-15T18:44:57;3.30;99.90
3300;DHT22;1662;49.310;8.134;2023-02-15T18:47:23;3.20;99.90
3300;DHT22;1662;49.310;8.134;2023-02-15T18:49:49;3.20;99.90
3300;DHT22;1662;49.310;8.134;2023-02-15T18:52:17;3.10;99.90
3300;DHT22;1662;49.310;8.134;2023-02-15T18:54:44;3.00;99.90
3300;DHT22;1662;49.310;8.134;2023-02-15T18:57:12;3.00;99.90
3300;DHT22;1662;49.310;8.134;2023-02-15T18:59:39;3.00;99.90
3300;DHT22;1662;49.310;8.134;2023-02-15T19:02:14;3.00;99.90
3300;DHT22;1662;49.310;8.134;2023-02-15T19:04:40;2.90;99.90
3300;DHT22;1662;49.310;8.134;2023-02-15T19:07:13;2.90;99.90
3300;DHT22;1662;49.310;8.134;2023-02-15T19:09:40;2.80;99.90
3300;DHT22;1662;49.310;8.134;2023-02-15T19:12:08;2.70;99.90
3300;DHT22;1662;49.310;8.134;2023-02-15T19:14:36;2.70;99.90
3300;DHT22;1662;49.310;8.134;2023-02-15T19:17:01;2.70;99.90
3300;DHT22;1662;49.310;8.134;2023-02-15T19:19:29;2.60;99.90
3300;DHT22;1662;49.310;8.134;2023-02-15T19:21:55;2.60;99.90
3300;DHT22;1662;49.310;8.134;2023-02-15T19:24:23;2.50;99.90
3300;DHT22;1662;49.310;8.134;2023-02-15T19:26:50;2.60;99.90
3300;DHT22;1662;49.310;8.134;2023-02-15T19:29:24;2.60;99.90
3300;DHT22;1662;49.310;8.134;2023-02-15T19:31:52;2.60;99.90
3300;DHT22;1662;49.310;8.134;2023-02-15T19:34:18;2.60;99.90
3300;DHT22;1662;49.310;8.134;2023-02-15T19:36:46;2.50;99.90
3300;DHT22;1662;49.310;8.134;2023-02-15T19:39:32;2.50;99.90
3300;DHT22;1662;49.310;8.134;2023-02-15T19:41:59;2.50;99.90
3300;DHT22;1662;49.310;8.134;2023-02-15T19:44:25;2.60;99.90
3300;DHT22;1662;49.310;8.134;2023-02-15T19:46:50;2.60;99.90
3300;DHT22;1662;49.310;8.134;2023-02-15T19:49:16;2.60;99.90
3300;DHT22;1662;49.310;8.134;2023-02-15T19:51:42;2.60;99.90
3300;DHT22;1662;49.310;8.134;2023-02-15T19:54:27;2.60;99.90
3300;DHT22;1662;49.310;8.134;2023-02-15T19:56:53;2.50;99.90
3300;DHT22;1662;49.310;8.134;2023-02-15T19:59:25;2.50;99.90
3300;DHT22;1662;49.310;8.134;2023-02-15T20:01:51;2.50;99.90
3300;DHT22;1662;49.310;8.134;2023-02-15T20:04:17;2.40;99.90
3300;DHT22;1662;49.310;8.134;2023-02-15T20:06:43;2.30;99.90
3300;DHT22;1662;49.310;8.134;2023-02-15T20:09:24;2.20;99.90
3300;DHT22;1662;49.310;8.134;2023-02-15T20:11:51;2.30;99.90
3300;DHT22;1662;49.310;8.134;2023-02-15T20:14:17;2.30;99.90